Time;durP1;ratioP1;P1;durP2;ratioP2;P2;SDS_P1;SDS_P2;PMS_P1;PMS_P2;Temp;Humidity;BMP_temperature;BMP_pressure;BME280_temperature;BME280_humidity;BME280_pressure;Samples;Min_cycle;Max_cycle;Signal;HPM_P1;HPM_P2
2024/03/16 00:00:36;;;;;;;6.15;2.10;;;;;;;13.14;100.00;100029.09;5072187;28;20032;-66
2024/03/16 00:03:01;;;;;;;3.67;2.20;;;;;;;12.86;100.00;100031.75;5069809;28;20504;-66
2024/03/16 00:05:27;;;;;;;5.88;2.40;;;;;;;12.92;100.00;100035.63;5069766;28;20024;-67
2024/03/16 00:07:53;;;;;;;6.18;2.78;;;;;;;12.93;100.00;100032.53;5068614;28;20036;-66
2024/03/16 00:10:19;;;;;;;4.93;1.90;;;;;;;13.01;100.00;100033.31;5070269;28;20040;-66
2024/03/16 00:12:45;;;;;;;4.47;2.63;;;;;;;13.07;100.00;100037.19;5051922;28;20033;-65
2024/03/16 00:15:10;;;;;;;4.95;1.83;;;;;;;13.14;100.00;100037.22;5069113;28;20570;-65
2024/03/16 00:17:36;;;;;;;5.85;2.78;;;;;;;13.18;100.00;100038.00;5055341;28;20032;-65
2024/03/16 00:20:06;;;;;;;4.95;2.50;;;;;;;13.12;100.00;100036.84;5052894;28;20028;-66
2024/03/16 00:22:31;;;;;;;4.68;2.25;;;;;;;13.03;100.00;100041.81;5053290;28;20020;-65
2024/03/16 00:24:57;;;;;;;5.25;2.38;;;;;;;13.12;100.00;100031.44;5069114;28;20489;-65
2024/03/16 00:27:23;;;;;;;5.40;3.03;;;;;;;13.23;100.00;100040.28;5070089;28;20112;-67
2024/03/16 00:29:48;;;;;;;7.00;3.03;;;;;;;13.26;100.00;100034.88;5068440;28;20039;-66
2024/03/16 00:32:15;;;;;;;5.80;2.50;;;;;;;13.22;100.00;100030.66;5069449;28;20028;-67
2024/03/16 00:34:41;;;;;;;10.00;2.78;;;;;;;13.35;100.00;100032.56;5068106;28;20085;-68
2024/03/16 00:37:06;;;;;;;8.80;3.05;;;;;;;13.14;100.00;100034.50;5068412;28;20033;-64
2024/03/16 00:39:32;;;;;;;7.95;2.85;;;;;;;13.14;100.00;100037.97;5073782;28;20509;-66
2024/03/16 00:41:58;;;;;;;8.38;2.72;;;;;;;12.97;100.00;100030.59;5068603;28;20025;-66
2024/03/16 00:44:27;;;;;;;7.85;3.05;;;;;;;13.00;100.00;100039.88;5072231;28;20032;-64
2024/03/16 00:46:53;;;;;;;6.05;2.30;;;;;;;13.04;100.00;100037.97;5068065;28;20067;-68
2024/03/16 00:49:19;;;;;;;5.90;2.58;;;;;;;13.12;100.00;100040.31;5055469;28;20090;-66
2024/03/16 00:51:44;;;;;;;4.75;2.58;;;;;;;12.92;100.00;100032.94;5069907;28;20611;-66
2024/03/16 00:54:14;;;;;;;7.85;3.60;;;;;;;12.95;100.00;100037.56;5071595;28;20135;-67
2024/03/16 00:56:39;;;;;;;5.32;3.55;;;;;;;12.97;100.00;100029.84;5070105;28;20032;-66
2024/03/16 00:59:05;;;;;;;4.65;2.50;;;;;;;13.12;100.00;100026.78;5050604;28;20035;-67
2024/03/16 01:01:34;;;;;;;8.45;3.35;;;;;;;13.03;100.00;100028.28;5068691;28;20052;-66
2024/03/16 01:04:00;;;;;;;6.78;3.38;;;;;;;13.12;100.00;100026.03;5067145;28;20036;-68
2024/03/16 01:06:26;;;;;;;7.18;3.38;;;;;;;13.30;100.00;100027.53;5083731;28;20805;-66
2024/03/16 01:08:52;;;;;;;9.75;3.58;;;;;;;13.28;100.00;100026.38;5069182;28;20131;-65
2024/03/16 01:11:18;;;;;;;9.70;4.13;;;;;;;13.23;100.00;100018.66;5066018;28;20040;-65
2024/03/16 01:13:44;;;;;;;7.28;3.75;;;;;;;13.16;100.00;100019.44;5068704;28;20516;-68
2024/03/16 01:16:09;;;;;;;9.63;3.63;;;;;;;13.26;100.00;100018.66;5069476;28;20032;-66
2024/03/16 01:18:35;;;;;;;8.18;3.90;;;;;;;13.02;100.00;100010.53;5071409;28;20033;-65
2024/03/16 01:21:01;;;;;;;8.63;3.67;;;;;;;13.07;100.00;100012.88;5053373;28;20060;-67
2024/03/16 01:23:27;;;;;;;8.65;3.45;;;;;;;13.22;100.00;100023.28;5069785;28;20168;-67
2024/03/16 01:25:52;;;;;;;7.22;3.17;;;;;;;13.09;100.00;100024.06;5067540;28;20486;-65
2024/03/16 01:28:18;;;;;;;10.52;3.70;;;;;;;13.17;100.00;100018.28;5071411;28;20047;-65
2024/03/16 01:30:43;;;;;;;8.70;4.80;;;;;;;12.97;100.00;100006.28;5070878;28;20035;-67
2024/03/16 01:33:10;;;;;;;10.48;5.05;;;;;;;12.86;100.00;100005.50;5068969;28;20024;-65
2024/03/16 01:35:36;;;;;;;13.27;4.72;;;;;;;13.07;100.00;100010.94;5068783;28;20052;-65
2024/03/16 01:38:02;;;;;;;10.07;4.82;;;;;;;12.80;100.00;100003.56;5068559;28;20029;-66
2024/03/16 01:40:27;;;;;;;12.95;4.63;;;;;;;12.74;100.00;100002.44;5068645;28;20380;-65
2024/03/16 01:42:53;;;;;;;16.65;5.00;;;;;;;12.84;100.00;99998.94;5067262;28;20039;-68
2024/03/16 01:45:19;;;;;;;12.15;5.25;;;;;;;12.88;100.00;99999.72;5066638;28;20038;-66
2024/03/16 01:47:45;;;;;;;9.45;4.57;;;;;;;12.97;100.00;99995.47;5050070;28;20062;-66
2024/03/16 01:50:10;;;;;;;15.27;5.10;;;;;;;12.88;100.00;99995.09;5067439;28;20048;-68
2024/03/16 01:52:36;;;;;;;9.55;4.50;;;;;;;12.88;100.00;100003.19;5069654;28;20385;-66
2024/03/16 01:55:04;;;;;;;13.93;5.43;;;;;;;13.06;100.00;99995.13;5066954;28;20098;-65
2024/03/16 01:57:30;;;;;;;9.77;4.80;;;;;;;13.05;100.00;100002.44;5067591;28;20522;-66
2024/03/16 01:59:55;;;;;;;13.70;4.75;;;;;;;12.97;100.00;100003.56;5069052;28;20028;-67
2024/03/16 02:02:36;;;;;;;12.00;5.40;;;;;;;12.96;100.00;100003.97;5067167;28;20119;-67
2024/03/16 02:05:03;;;;;;;12.00;3.83;;;;;;;12.89;100.00;100009.38;5066103;28;20050;-66
2024/03/16 02:07:37;;;;;;;15.35;5.43;;;;;;;12.95;100.00;99997.03;5066412;28;20123;-66
2024/03/16 02:10:09;;;;;;;12.57;4.68;;;;;;;13.15;100.00;100006.31;5062586;28;20554;-66
2024/03/16 02:12:35;;;;;;;9.02;3.88;;;;;;;13.14;100.00;100005.53;5063556;28;20035;-66
2024/03/16 02:15:00;;;;;;;12.32;5.63;;;;;;;13.00;100.00;100000.13;5067971;28;20041;-68
2024/03/16 02:17:26;;;;;;;15.80;5.35;;;;;;;13.02;100.00;100002.44;5069835;28;20072;-65
2024/03/16 02:19:52;;;;;;;11.85;5.30;;;;;;;13.00;100.00;100002.03;5050583;28;20081;-66
2024/03/16 02:22:19;;;;;;;11.23;5.63;;;;;;;12.88;100.00;99997.78;5066607;28;20585;-65
2024/03/16 02:24:45;;;;;;;14.18;5.60;;;;;;;12.92;100.00;99995.09;5069184;28;20107;-65
2024/03/16 02:27:11;;;;;;;13.15;5.80;;;;;;;13.12;100.00;99986.25;5072645;28;20039;-66
2024/03/16 02:29:37;;;;;;;12.90;5.30;;;;;;;12.87;100.00;99996.25;5069400;28;20032;-65
2024/03/16 02:32:07;;;;;;;17.60;6.78;;;;;;;12.97;100.00;99992.75;5070303;28;20043;-65
2024/03/16 02:34:33;;;;;;;15.40;5.40;;;;;;;12.88;100.00;99997.00;5065541;28;20444;-65
2024/03/16 02:36:59;;;;;;;9.18;4.45;;;;;;;12.92;100.00;100003.19;5066160;28;20089;-67
2024/03/16 02:39:25;;;;;;;12.43;5.22;;;;;;;13.17;100.00;99993.19;5068770;28;20035;-67
2024/03/16 02:41:52;;;;;;;8.05;4.22;;;;;;;13.09;100.00;100000.53;5066362;28;20041;-66
2024/03/16 02:44:19;;;;;;;14.20;6.30;;;;;;;13.14;100.00;99996.66;5084340;28;20040;-66
2024/03/16 02:46:45;;;;;;;12.88;5.30;;;;;;;13.19;100.00;99988.16;5070793;28;20037;-66
2024/03/16 02:49:10;;;;;;;12.43;5.13;;;;;;;13.10;100.00;99990.50;5066742;28;20032;-66
2024/03/16 02:51:36;;;;;;;14.15;4.82;;;;;;;13.02;100.00;99999.72;5066099;28;20059;-64
2024/03/16 02:54:04;;;;;;;15.32;5.55;;;;;;;12.90;100.00;100000.09;5065338;28;20482;-66
2024/03/16 02:56:30;;;;;;;13.38;5.07;;;;;;;13.08;100.00;100006.31;5070597;28;20036;-66
2024/03/16 02:58:55;;;;;;;13.18;5.82;;;;;;;13.17;100.00;100006.69;5067639;28;20526;-66
2024/03/16 03:01:21;;;;;;;17.60;5.90;;;;;;;12.86;100.00;99999.34;5068166;28;20017;-66
2024/03/16 03:03:46;;;;;;;14.50;5.78;;;;;;;13.01;100.00;100001.66;5069391;28;20051;-64
2024/03/16 03:06:12;;;;;;;13.80;5.55;;;;;;;12.87;100.00;100007.06;5066891;28;20046;-64
2024/03/16 03:08:38;;;;;;;13.43;5.35;;;;;;;12.90;100.00;100000.88;5067807;28;20032;-65
2024/03/16 03:11:04;;;;;;;16.00;6.28;;;;;;;12.89;100.00;100009.38;5085672;28;20020;-64
2024/03/16 03:13:29;;;;;;;15.07;6.20;;;;;;;13.07;100.00;100002.06;5070025;28;20493;-65
2024/03/16 03:15:56;;;;;;;12.65;5.32;;;;;;;13.09;100.00;100013.25;5068058;28;20554;-65
2024/03/16 03:18:24;;;;;;;12.77;5.68;;;;;;;13.21;100.00;100010.16;5084783;28;20036;-64
2024/03/16 03:20:52;;;;;;;10.93;5.47;;;;;;;13.24;100.00;100001.28;5066179;28;20028;-64
2024/03/16 03:23:18;;;;;;;12.90;6.15;;;;;;;13.25;100.00;100005.53;5082713;28;20436;-65
2024/03/16 03:25:45;;;;;;;16.08;7.07;;;;;;;13.27;100.00;100004.00;5076061;28;20032;-65
2024/03/16 03:28:10;;;;;;;15.45;6.13;;;;;;;13.13;100.00;100009.41;5070551;28;20099;-64
2024/03/16 03:30:36;;;;;;;14.10;6.25;;;;;;;13.20;100.00;100003.97;5071432;28;20123;-66
2024/03/16 03:33:01;;;;;;;15.88;6.30;;;;;;;13.05;100.00;100010.56;5081987;28;20033;-67
2024/03/16 03:35:26;;;;;;;14.30;5.90;;;;;;;13.26;100.00;100015.16;5067493;28;20032;-65
2024/03/16 03:37:52;;;;;;;10.98;5.38;;;;;;;13.15;100.00;100000.91;5072402;28;20073;-67
2024/03/16 03:40:18;;;;;;;14.73;5.82;;;;;;;13.24;100.00;100004.75;5069599;28;20028;-67
2024/03/16 03:42:47;;;;;;;20.13;6.10;;;;;;;13.29;100.00;100009.78;5070476;28;20032;-67
2024/03/16 03:45:37;;;;;;;15.20;6.07;;;;;;;13.28;100.00;100008.22;5053401;28;20454;-66
2024/03/16 03:48:14;;;;;;;12.70;5.30;;;;;;;13.22;100.00;100003.63;5069363;28;20075;-65
2024/03/16 03:50:41;;;;;;;12.00;5.82;;;;;;;13.17;100.00;100006.69;5073772;28;20039;-67
2024/03/16 03:53:06;;;;;;;13.40;5.70;;;;;;;13.09;100.00;99999.75;5071414;28;20107;-66
2024/03/16 03:55:32;;;;;;;16.23;6.22;;;;;;;13.13;100.00;99997.81;5073573;28;20147;-66
2024/03/16 03:58:00;;;;;;;20.60;6.68;;;;;;;13.24;100.00;99993.19;5071094;28;20020;-65
2024/03/16 04:00:25;;;;;;;13.75;5.60;;;;;;;13.18;100.00;99990.06;5071069;28;20045;-66
2024/03/16 04:02:51;;;;;;;15.90;6.20;;;;;;;13.18;100.00;99992.03;5074820;28;20075;-66
2024/03/16 04:05:16;;;;;;;18.52;6.80;;;;;;;12.75;100.00;99998.56;5071125;28;20032;-66
2024/03/16 04:07:43;;;;;;;16.30;5.72;;;;;;;12.96;100.00;99993.94;5069304;28;20134;-66
2024/03/16 04:10:09;;;;;;;10.82;5.18;;;;;;;12.99;100.00;99995.84;5087662;28;20048;-65
2024/03/16 04:12:34;;;;;;;11.18;6.47;;;;;;;13.05;100.00;99998.97;5073822;28;20036;-65
2024/03/16 04:15:00;;;;;;;16.77;5.90;;;;;;;12.78;100.00;99997.78;5069149;28;20032;-67
2024/03/16 04:17:26;;;;;;;12.57;5.25;;;;;;;12.83;100.00;100003.59;5070119;28;20036;-67
2024/03/16 04:19:51;;;;;;;16.70;6.32;;;;;;;12.73;100.00;100004.34;5073906;28;20047;-66
2024/03/16 04:22:17;;;;;;;11.90;5.82;;;;;;;12.79;100.00;100005.53;5073837;28;20036;-65
2024/03/16 04:24:42;;;;;;;12.40;5.10;;;;;;;12.66;100.00;99999.72;5065876;28;20040;-65
2024/03/16 04:27:08;;;;;;;12.77;4.68;;;;;;;12.71;100.00;100001.25;5056018;28;20024;-65
2024/03/16 04:29:33;;;;;;;16.02;5.22;;;;;;;13.01;100.00;100000.88;5070855;28;20025;-66
2024/03/16 04:31:59;;;;;;;10.25;5.40;;;;;;;13.05;100.00;100002.44;5070954;28;20028;-68
2024/03/16 04:34:26;;;;;;;16.45;5.60;;;;;;;13.07;100.00;100002.84;5071874;28;20535;-66
2024/03/16 04:36:52;;;;;;;11.20;5.13;;;;;;;13.16;100.00;100005.16;5074741;28;20480;-66
2024/03/16 04:39:21;;;;;;;8.70;4.20;;;;;;;13.14;100.00;99999.38;5051873;28;20029;-67
2024/03/16 04:41:48;;;;;;;10.60;4.15;;;;;;;13.23;100.00;100008.63;5084731;28;20408;-66
2024/03/16 04:44:13;;;;;;;11.80;4.97;;;;;;;13.00;100.00;100005.53;5076346;28;20405;-64
2024/03/16 04:46:38;;;;;;;10.10;5.13;;;;;;;13.08;100.00;100009.81;5052623;28;20037;-65
2024/03/16 04:49:04;;;;;;;16.98;4.50;;;;;;;13.26;100.00;100005.13;5068783;28;20396;-66
2024/03/16 04:51:30;;;;;;;14.38;5.95;;;;;;;13.09;100.00;100010.56;5082442;28;20028;-67
2024/03/16 04:53:56;;;;;;;14.02;5.13;;;;;;;13.21;100.00;100007.47;5068854;28;20040;-65
2024/03/16 04:56:22;;;;;;;10.77;4.45;;;;;;;13.15;100.00;100006.31;5068502;28;20492;-66
2024/03/16 04:58:48;;;;;;;14.65;4.07;;;;;;;13.22;100.00;100015.19;5077123;28;20025;-65
2024/03/16 05:01:14;;;;;;;11.07;4.57;;;;;;;13.13;100.00;100014.03;5069170;28;20025;-64
2024/03/16 05:03:39;;;;;;;10.60;4.13;;;;;;;13.06;100.00;100009.41;5087524;28;20027;-64
2024/03/16 05:06:05;;;;;;;12.45;4.28;;;;;;;13.10;100.00;100012.91;5070349;28;20025;-66
2024/03/16 05:08:30;;;;;;;11.52;4.32;;;;;;;13.10;100.00;100006.72;5068964;28;20133;-66
2024/03/16 05:10:58;;;;;;;13.50;4.38;;;;;;;13.05;100.00;100012.47;5068731;28;20029;-66
2024/03/16 05:13:26;;;;;;;8.25;3.78;;;;;;;12.98;100.00;100007.06;5056654;28;20506;-65
2024/03/16 05:15:52;;;;;;;10.10;4.03;;;;;;;13.01;100.00;100012.47;5069061;28;20131;-65
2024/03/16 05:18:18;;;;;;;15.15;4.57;;;;;;;13.02;100.00;100005.13;5049968;28;20116;-66
2024/03/16 05:20:44;;;;;;;15.25;4.85;;;;;;;13.17;100.00;100009.41;5070522;28;20032;-66
2024/03/16 05:23:10;;;;;;;9.50;3.42;;;;;;;13.20;100.00;100003.97;5073890;28;20127;-66
2024/03/16 05:25:37;;;;;;;9.60;3.80;;;;;;;13.40;100.00;100007.03;5071146;28;20050;-64
2024/03/16 05:28:03;;;;;;;9.50;3.67;;;;;;;13.21;100.00;100010.16;5070656;28;20038;-65
2024/03/16 05:30:29;;;;;;;7.07;3.17;;;;;;;13.13;100.00;100009.41;5069846;28;20029;-64
2024/03/16 05:32:54;;;;;;;7.53;3.47;;;;;;;13.23;100.00;100010.56;5071953;28;20043;-65
2024/03/16 05:35:19;;;;;;;9.85;3.63;;;;;;;13.32;100.00;100010.91;5069561;28;20071;-67
2024/03/16 05:37:45;;;;;;;7.25;3.72;;;;;;;13.08;100.00;100015.22;5056511;28;20037;-65
2024/03/16 05:40:10;;;;;;;12.00;4.55;;;;;;;13.11;100.00;100008.22;5069232;28;20025;-67
2024/03/16 05:42:39;;;;;;;16.20;4.43;;;;;;;12.88;100.00;100015.94;5059080;28;20020;-65
2024/03/16 05:45:06;;;;;;;9.73;4.32;;;;;;;12.70;100.00;100030.19;5066305;28;20119;-64
2024/03/16 05:47:32;;;;;;;7.53;3.65;;;;;;;12.76;100.00;100027.09;5068593;28;20047;-67
2024/03/16 05:49:57;;;;;;;9.90;3.53;;;;;;;12.46;100.00;100022.06;5072461;28;20448;-66
2024/03/16 05:52:23;;;;;;;11.30;3.10;;;;;;;12.41;100.00;100063.69;5066049;28;20463;-65
2024/03/16 05:54:48;;;;;;;2.83;2.13;;;;;;;12.31;100.00;100091.44;5080299;28;20032;-66
2024/03/16 05:57:14;;;;;;;1.45;0.98;;;;;;;12.02;100.00;100092.44;5068054;28;20037;-65
2024/03/16 05:59:39;;;;;;;2.13;0.93;;;;;;;12.16;100.00;100100.63;5057496;28;20051;-65
2024/03/16 06:02:05;;;;;;;2.15;1.50;;;;;;;12.24;100.00;100096.03;5071567;28;20036;-64
2024/03/16 06:04:30;;;;;;;1.15;0.60;;;;;;;12.08;100.00;100107.13;5057326;28;20044;-66
2024/03/16 06:06:56;;;;;;;1.95;0.85;;;;;;;11.84;100.00;100115.88;5073712;28;20036;-66
2024/03/16 06:09:21;;;;;;;2.00;0.70;;;;;;;11.71;100.00;100111.94;5067864;28;20044;-67
2024/03/16 06:11:47;;;;;;;1.80;0.68;;;;;;;11.53;100.00;100116.41;5069641;28;20056;-66
2024/03/16 06:14:12;;;;;;;1.00;0.88;;;;;;;11.77;100.00;100122.00;5069453;28;20068;-65
2024/03/16 06:16:39;;;;;;;2.72;0.95;;;;;;;11.42;100.00;100127.09;5070600;28;20107;-65
2024/03/16 06:19:06;;;;;;;1.33;1.23;;;;;;;11.35;100.00;100128.97;5071980;28;20536;-68
2024/03/16 06:21:31;;;;;;;0.63;0.63;;;;;;;11.26;100.00;100131.97;5067958;28;20111;-65
2024/03/16 06:23:58;;;;;;;0.80;0.80;;;;;;;11.27;100.00;100135.44;5071914;28;20166;-65
2024/03/16 06:26:24;;;;;;;0.40;0.40;;;;;;;11.24;100.00;100138.88;5062226;28;20083;-66
2024/03/16 06:29:04;;;;;;;0.47;0.47;;;;;;;11.32;100.00;100145.88;5068123;28;20071;-66
2024/03/16 06:31:35;;;;;;;1.53;0.80;;;;;;;11.48;100.00;100154.47;5068054;28;20033;-65
2024/03/16 06:34:04;;;;;;;0.43;0.43;;;;;;;11.46;100.00;100159.47;5068896;28;20286;-65
2024/03/16 06:36:34;;;;;;;3.30;1.02;;;;;;;11.68;100.00;100164.72;5068253;28;20051;-69
2024/03/16 06:39:10;;;;;;;1.35;0.93;;;;;;;11.54;100.00;100166.47;5068651;28;20060;-65
2024/03/16 06:41:36;;;;;;;2.65;0.90;;;;;;;11.42;100.00;100172.19;5067399;28;20120;-64
2024/03/16 06:44:05;;;;;;;1.10;0.70;;;;;;;11.20;100.00;100178.50;5069866;28;20095;-63
2024/03/16 06:46:31;;;;;;;2.67;1.30;;;;;;;11.65;100.00;100186.25;5069254;28;20109;-66
2024/03/16 06:48:59;;;;;;;1.33;1.08;;;;;;;11.91;100.00;100194.16;5070158;28;20434;-63
2024/03/16 06:51:25;;;;;;;2.65;0.88;;;;;;;11.63;100.00;100200.06;5070182;28;20032;-64
2024/03/16 06:53:50;;;;;;;1.02;0.80;;;;;;;11.63;100.00;100220.91;5071209;28;20029;-63
2024/03/16 06:56:16;;;;;;;2.03;1.00;;;;;;;11.42;100.00;100216.06;5076581;28;20063;-63
2024/03/16 06:58:41;;;;;;;1.05;0.75;;;;;;;11.35;100.00;100223.31;5056342;28;20032;-64
2024/03/16 07:01:07;;;;;;;2.35;1.17;;;;;;;11.10;100.00;100224.97;5072044;28;20037;-64
2024/03/16 07:03:32;;;;;;;2.28;0.93;;;;;;;11.15;100.00;100243.53;5074480;28;20093;-63
2024/03/16 07:05:58;;;;;;;2.00;0.90;;;;;;;10.73;100.00;100230.31;5072568;28;20555;-65
2024/03/16 07:08:24;;;;;;;4.13;0.95;;;;;;;11.21;100.00;100247.41;5073236;28;20035;-65
2024/03/16 07:10:50;;;;;;;1.35;1.00;;;;;;;11.12;100.00;100246.94;5071411;28;20059;-68
2024/03/16 07:13:15;;;;;;;2.67;0.75;;;;;;;10.72;100.00;100259.16;5057748;28;20089;-66
2024/03/16 07:15:41;;;;;;;0.50;0.50;;;;;;;10.72;100.00;100267.22;5058989;28;20089;-64
2024/03/16 07:18:07;;;;;;;2.03;0.68;;;;;;;10.84;100.00;100272.38;5070009;28;20058;-67
2024/03/16 07:20:33;;;;;;;0.40;0.40;;;;;;;11.11;100.00;100285.81;5072680;28;20033;-65
2024/03/16 07:22:59;;;;;;;3.17;0.90;;;;;;;11.20;100.00;100286.31;5089752;28;20046;-66
2024/03/16 07:25:25;;;;;;;1.33;0.95;;;;;;;11.21;100.00;100294.00;5074443;28;20481;-65
2024/03/16 07:27:51;;;;;;;4.80;1.38;;;;;;;11.02;100.00;100304.16;5073916;28;20504;-67
2024/03/16 07:30:18;;;;;;;5.80;1.70;;;;;;;10.61;100.00;100312.09;5070726;28;20037;-65
2024/03/16 07:32:46;;;;;;;1.75;1.08;;;;;;;10.52;100.00;100319.66;5069991;28;20031;-67
2024/03/16 07:35:13;;;;;;;2.25;1.30;;;;;;;10.84;100.00;100331.66;5056450;28;20033;-67
2024/03/16 07:37:39;;;;;;;2.70;0.95;;;;;;;10.55;100.00;100345.09;5068306;28;20032;-65
2024/03/16 07:40:13;;;;;;;2.63;1.55;;;;;;;10.75;100.00;100360.00;5071728;28;20016;-65
2024/03/16 07:42:40;;;;;;;5.60;2.00;;;;;;;10.60;100.00;100356.31;5075330;28;20107;-67
2024/03/16 07:45:06;;;;;;;3.33;2.00;;;;;;;10.81;100.00;100364.72;5087931;28;20505;-65
2024/03/16 07:47:32;;;;;;;6.95;2.10;;;;;;;11.04;100.00;100375.41;5055698;28;20090;-64
2024/03/16 07:49:57;;;;;;;4.68;1.73;;;;;;;11.01;99.40;100378.84;5055492;28;20119;-65
2024/03/16 07:52:23;;;;;;;5.03;1.65;;;;;;;11.09;99.12;100391.25;5071897;28;20089;-65
2024/03/16 07:54:48;;;;;;;3.05;1.63;;;;;;;11.02;99.22;100393.06;5072328;28;20033;-68
2024/03/16 07:57:14;;;;;;;3.70;1.80;;;;;;;10.67;99.44;100396.81;5072877;28;20113;-64
2024/03/16 07:59:40;;;;;;;2.75;1.67;;;;;;;10.84;99.73;100403.59;5070442;28;20044;-72
2024/03/16 08:02:06;;;;;;;3.53;1.77;;;;;;;10.96;98.70;100411.47;5076103;28;20077;-65
2024/03/16 08:04:33;;;;;;;4.80;1.42;;;;;;;10.95;97.18;100415.31;5073574;28;20062;-65
2024/03/16 08:06:59;;;;;;;2.40;1.60;;;;;;;10.54;99.45;100419.69;5073593;28;20389;-70
2024/03/16 08:09:25;;;;;;;2.50;1.02;;;;;;;10.65;99.83;100419.84;5083467;28;20497;-68
2024/03/16 08:11:51;;;;;;;6.72;2.03;;;;;;;10.86;99.46;100429.03;5071516;28;19962;-65
2024/03/16 08:14:17;;;;;;;4.90;1.17;;;;;;;10.73;99.59;100432.28;5071289;28;20089;-65
2024/03/16 08:16:42;;;;;;;0.68;0.68;;;;;;;10.61;99.42;100440.56;5071500;28;20036;-65
2024/03/16 08:19:08;;;;;;;3.40;0.80;;;;;;;10.82;98.91;100457.06;5072730;28;20036;-64
2024/03/16 08:21:33;;;;;;;2.80;0.70;;;;;;;10.82;98.38;100446.28;5056384;28;20115;-64
2024/03/16 08:24:00;;;;;;;0.73;0.60;;;;;;;10.97;98.08;100474.22;5056912;28;20031;-64
2024/03/16 08:26:27;;;;;;;1.27;0.50;;;;;;;10.77;98.12;100477.00;5059637;28;20029;-66
2024/03/16 08:28:53;;;;;;;3.03;0.80;;;;;;;10.41;96.44;100479.44;5070348;28;20021;-66
2024/03/16 08:31:19;;;;;;;8.90;0.60;;;;;;;10.63;96.62;100481.38;5072965;28;20041;-65
2024/03/16 08:33:44;;;;;;;1.98;1.13;;;;;;;10.41;95.05;100484.84;5071973;28;20029;-63
2024/03/16 08:36:10;;;;;;;1.98;0.60;;;;;;;10.46;94.70;100488.00;5076034;28;20034;-66
2024/03/16 08:38:36;;;;;;;1.17;0.40;;;;;;;10.43;93.61;100487.94;5074929;28;20058;-64
2024/03/16 08:41:02;;;;;;;5.68;0.82;;;;;;;10.38;93.83;100494.38;5069159;28;20025;-64
2024/03/16 08:43:28;;;;;;;0.80;0.52;;;;;;;10.37;93.14;100500.94;5071638;28;20032;-65
2024/03/16 08:45:53;;;;;;;0.35;0.32;;;;;;;10.41;92.84;100511.75;5072255;28;20036;-65
2024/03/16 08:48:19;;;;;;;0.17;0.17;;;;;;;10.18;93.83;100508.22;5072690;28;20035;-65
2024/03/16 08:50:45;;;;;;;4.47;0.80;;;;;;;10.09;93.87;100511.09;5056101;28;20028;-67
2024/03/16 08:53:11;;;;;;;1.52;0.25;;;;;;;10.28;93.97;100519.19;5069712;28;20035;-65
2024/03/16 08:55:37;;;;;;;2.03;0.75;;;;;;;10.44;93.00;100521.78;5078370;28;20020;-66
2024/03/16 08:58:03;;;;;;;1.58;1.48;;;;;;;10.38;92.37;100532.06;5059792;28;20762;-64
2024/03/16 09:00:29;;;;;;;1.17;0.50;;;;;;;10.61;92.21;100530.19;5072306;28;20032;-66
2024/03/16 09:02:55;;;;;;;2.63;0.60;;;;;;;10.76;92.01;100542.00;5068914;28;20032;-64
2024/03/16 09:05:21;;;;;;;1.55;0.85;;;;;;;10.44;92.03;100540.63;5069189;28;20517;-65
2024/03/16 09:07:47;;;;;;;3.70;1.00;;;;;;;10.28;91.81;100554.19;5075309;28;20028;-65
2024/03/16 09:10:12;;;;;;;6.35;0.50;;;;;;;10.12;92.29;100558.09;5073041;28;20788;-65
2024/03/16 09:12:38;;;;;;;0.55;0.50;;;;;;;10.10;91.83;100561.13;5073579;28;20028;-65
2024/03/16 09:15:08;;;;;;;0.68;0.65;;;;;;;10.16;91.51;100564.31;5072247;28;20031;-65
2024/03/16 09:17:34;;;;;;;0.22;0.22;;;;;;;10.32;91.04;100576.56;5072578;28;20025;-66
2024/03/16 09:20:07;;;;;;;0.28;0.25;;;;;;;9.91;89.79;100586.06;5055746;28;20372;-67
2024/03/16 09:22:32;;;;;;;0.45;0.40;;;;;;;10.00;90.56;100577.78;5072593;28;20028;-65
2024/03/16 09:24:58;;;;;;;0.77;0.57;;;;;;;10.04;89.15;100584.03;5075569;28;20028;-67
2024/03/16 09:27:23;;;;;;;1.95;0.50;;;;;;;9.76;88.16;100589.56;5069383;28;20032;-65
2024/03/16 09:29:49;;;;;;;0.73;0.45;;;;;;;10.23;87.42;100602.13;5070303;28;20074;-65
2024/03/16 09:32:14;;;;;;;0.43;0.30;;;;;;;10.51;88.11;100603.47;5072197;28;20485;-65
2024/03/16 09:34:40;;;;;;;1.02;0.28;;;;;;;10.46;86.32;100609.16;5052415;28;20037;-64
2024/03/16 09:37:05;;;;;;;6.57;1.08;;;;;;;10.38;86.59;100603.97;5071863;28;20494;-65
2024/03/16 09:39:30;;;;;;;2.05;0.40;;;;;;;10.55;85.71;100614.34;5054831;28;20059;-66
2024/03/16 09:41:57;;;;;;;0.50;0.35;;;;;;;10.58;85.70;100619.78;5070629;28;20024;-66
2024/03/16 09:44:23;;;;;;;8.85;1.05;;;;;;;10.78;85.40;100624.00;5070431;28;20040;-64
2024/03/16 09:46:51;;;;;;;3.45;0.57;;;;;;;10.86;85.56;100631.09;5069965;28;20027;-64
2024/03/16 09:49:16;;;;;;;0.82;0.70;;;;;;;10.73;83.70;100627.00;5079011;28;20043;-65
2024/03/16 09:51:42;;;;;;;0.93;0.68;;;;;;;11.07;84.27;100625.28;5065152;28;20024;-64
2024/03/16 09:54:09;;;;;;;3.42;0.90;;;;;;;11.25;83.12;100623.69;5071422;28;20032;-67
2024/03/16 09:56:39;;;;;;;1.80;0.63;;;;;;;11.34;82.32;100636.94;5070747;28;20043;-65
2024/03/16 09:59:12;;;;;;;5.00;0.77;;;;;;;11.60;80.42;100648.53;5068161;28;20032;-65
2024/03/16 10:01:38;;;;;;;1.05;0.60;;;;;;;11.42;79.65;100644.78;5067458;28;20163;-65
2024/03/16 10:04:04;;;;;;;3.53;0.70;;;;;;;11.72;80.76;100663.78;5088542;28;20473;-63
2024/03/16 10:06:31;;;;;;;2.05;0.43;;;;;;;11.44;78.56;100657.91;5066361;28;20036;-67
2024/03/16 10:09:10;;;;;;;1.23;0.50;;;;;;;11.30;79.16;100654.97;5073605;28;20670;-64
2024/03/16 10:11:39;;;;;;;1.00;0.60;;;;;;;11.37;80.08;100669.34;5068463;28;20040;-67
2024/03/16 10:14:09;;;;;;;1.30;0.52;;;;;;;11.35;78.91;100674.31;5069119;28;20020;-64
2024/03/16 10:16:35;;;;;;;0.50;0.50;;;;;;;10.97;80.33;100679.78;5070214;28;20059;-65
2024/03/16 10:19:01;;;;;;;0.80;0.43;;;;;;;10.81;82.37;100698.72;5085242;28;20086;-64
2024/03/16 10:21:30;;;;;;;3.30;0.40;;;;;;;11.09;81.79;100693.09;5071591;28;20147;-65
2024/03/16 10:23:59;;;;;;;3.38;0.52;;;;;;;11.03;82.06;100696.44;5070060;28;20192;-64
2024/03/16 10:26:30;;;;;;;0.22;0.22;;;;;;;11.05;82.75;100697.66;5069597;28;20048;-64
2024/03/16 10:29:07;;;;;;;0.52;0.52;;;;;;;11.19;82.46;100703.28;5069745;28;20029;-64
2024/03/16 10:31:32;;;;;;;0.30;0.28;;;;;;;11.50;80.99;100715.78;5065980;28;20136;-66
2024/03/16 10:34:01;;;;;;;0.20;0.20;;;;;;;11.31;79.06;100705.03;5058349;28;20092;-65
2024/03/16 10:36:26;;;;;;;2.50;0.75;;;;;;;11.42;80.81;100706.78;5074758;28;20446;-66
2024/03/16 10:38:55;;;;;;;3.50;0.90;;;;;;;11.70;79.73;100711.94;5072549;28;20040;-64
2024/03/16 10:41:21;;;;;;;0.45;0.40;;;;;;;11.61;79.10;100711.38;5069488;28;20028;-65
2024/03/16 10:43:47;;;;;;;2.35;0.47;;;;;;;11.93;78.58;100720.00;5052831;28;20025;-63
2024/03/16 10:46:15;;;;;;;0.40;0.40;;;;;;;11.71;77.18;100721.59;5053690;28;20085;-64
2024/03/16 10:48:44;;;;;;;1.08;0.35;;;;;;;11.29;77.55;100739.66;5077160;28;20043;-65
2024/03/16 10:51:15;;;;;;;2.95;0.60;;;;;;;11.35;79.35;100743.63;5076591;28;20028;-66
2024/03/16 10:53:41;;;;;;;0.98;0.70;;;;;;;11.50;79.86;100756.22;5069129;28;20032;-63
2024/03/16 10:56:07;;;;;;;2.45;0.73;;;;;;;11.59;76.40;100762.94;5071195;28;20025;-63
2024/03/16 10:58:33;;;;;;;2.65;0.47;;;;;;;11.46;74.47;100758.88;5063493;28;20036;-65
2024/03/16 11:01:07;;;;;;;3.42;1.27;;;;;;;11.60;73.70;100766.44;5068105;28;20478;-63
2024/03/16 11:03:39;;;;;;;1.45;0.35;;;;;;;11.59;74.28;100765.66;5058961;28;20028;-64
2024/03/16 11:06:10;;;;;;;;;;;;;;;11.47;74.69;100773.13;5068789;28;20123;-64
2024/03/16 11:08:48;;;;;;;0.20;0.20;;;;;;;11.44;75.76;100780.03;5066972;28;19916;-68
2024/03/16 11:11:26;;;;;;;1.15;0.45;;;;;;;11.64;76.57;100778.06;5071491;28;20041;-64
2024/03/16 11:13:55;;;;;;;0.57;0.40;;;;;;;11.33;74.80;100786.34;5070280;28;20545;-64
2024/03/16 11:16:28;;;;;;;1.15;0.60;;;;;;;11.74;74.33;100778.31;5085940;28;20040;-65